sensor_id;sensor_type;location;lat;lon;timestamp;temperature;humidity
29453;DHT22;16424;50.956;5.320;2023-01-10T00:00:24;6.10;99.90
29453;DHT22;16424;50.956;5.320;2023-01-10T00:02:51;6.10;99.90
29453;DHT22;16424;50.956;5.320;2023-01-10T00:05:18;6.20;99.90
29453;DHT22;16424;50.956;5.320;2023-01-10T00:07:44;6.00;99.90
29453;DHT22;16424;50.956;5.320;2023-01-10T00:10:10;6.20;99.90
29453;DHT22;16424;50.956;5.320;2023-01-10T00:12:36;6.10;99.90
29453;DHT22;16424;50.956;5.320;2023-01-10T00:15:21;6.00;99.90
29453;DHT22;16424;50.956;5.320;2023-01-10T00:17:47;5.90;99.90
29453;DHT22;16424;50.956;5.320;2023-01-10T00:20:13;6.00;99.90
29453;DHT22;16424;50.956;5.320;2023-01-10T00:22:39;6.00;99.90
29453;DHT22;16424;50.956;5.320;2023-01-10T00:25:05;6.00;99.90
29453;DHT22;16424;50.956;5.320;2023-01-10T00:27:31;6.00;99.90
29453;DHT22;16424;50.956;5.320;2023-01-10T00:29:56;6.00;99.90
29453;DHT22;16424;50.956;5.320;2023-01-10T00:32:25;6.00;99.90
29453;DHT22;16424;50.956;5.320;2023-01-10T00:34:51;6.00;99.90
29453;DHT22;16424;50.956;5.320;2023-01-10T00:37:16;5.90;99.90
29453;DHT22;16424;50.956;5.320;2023-01-10T00:39:42;6.00;99.90
29453;DHT22;16424;50.956;5.320;2023-01-10T00:42:09;6.00;99.90
29453;DHT22;16424;50.956;5.320;2023-01-10T00:44:53;6.10;99.90
29453;DHT22;16424;50.956;5.320;2023-01-10T00:47:19;6.00;99.90
29453;DHT22;16424;50.956;5.320;2023-01-10T00:49:45;5.90;99.90
29453;DHT22;16424;50.956;5.320;2023-01-10T00:52:11;6.00;99.90
29453;DHT22;16424;50.956;5.320;2023-01-10T00:54:37;6.00;99.90
29453;DHT22;16424;50.956;5.320;2023-01-10T00:57:03;6.00;99.90
29453;DHT22;16424;50.956;5.320;2023-01-10T00:59:28;6.00;99.90
29453;DHT22;16424;50.956;5.320;2023-01-10T01:01:54;6.00;99.90
29453;DHT22;16424;50.956;5.320;2023-01-10T01:04:20;6.10;99.90
29453;DHT22;16424;50.956;5.320;2023-01-10T01:06:46;6.20;99.90
29453;DHT22;16424;50.956;5.320;2023-01-10T01:09:16;6.20;99.90
29453;DHT22;16424;50.956;5.320;2023-01-10T01:11:42;6.20;99.90
29453;DHT22;16424;50.956;5.320;2023-01-10T01:14:07;6.40;99.90
29453;DHT22;16424;50.956;5.320;2023-01-10T01:16:33;6.40;99.90
29453;DHT22;16424;50.956;5.320;2023-01-10T01:18:59;6.30;99.90
29453;DHT22;16424;50.956;5.320;2023-01-10T01:21:24;6.20;99.90
29453;DHT22;16424;50.956;5.320;2023-01-10T01:23:54;6.10;99.90
29453;DHT22;16424;50.956;5.320;2023-01-10T01:26:23;6.00;99.90
29453;DHT22;16424;50.956;5.320;2023-01-10T01:28:49;5.80;99.90
29453;DHT22;16424;50.956;5.320;2023-01-10T01:31:15;5.90;99.90
29453;DHT22;16424;50.956;5.320;2023-01-10T01:33:42;6.00;99.90
29453;DHT22;16424;50.956;5.320;2023-01-10T01:36:11;5.90;99.90
29453;DHT22;16424;50.956;5.320;2023-01-10T01:38:38;6.20;99.90
29453;DHT22;16424;50.956;5.320;2023-01-10T01:41:04;5.90;99.90
29453;DHT22;16424;50.956;5.320;2023-01-10T01:44:09;5.90;99.90
29453;DHT22;16424;50.956;5.320;2023-01-10T01:46:38;6.00;99.90
29453;DHT22;16424;50.956;5.320;2023-01-10T01:49:14;6.00;99.90
29453;DHT22;16424;50.956;5.320;2023-01-10T01:51:41;5.80;99.90
29453;DHT22;16424;50.956;5.320;2023-01-10T01:54:10;5.80;99.90
29453;DHT22;16424;50.956;5.320;2023-01-10T01:56:53;5.80;99.90
29453;DHT22;16424;50.956;5.320;2023-01-10T01:59:30;6.00;99.90
29453;DHT22;16424;50.956;5.320;2023-01-10T02:02:07;5.90;99.90
29453;DHT22;16424;50.956;5.320;2023-01-10T02:04:41;5.90;99.90
29453;DHT22;16424;50.956;5.320;2023-01-10T02:07:09;5.90;99.90
29453;DHT22;16424;50.956;5.320;2023-01-10T02:09:48;5.80;99.90
29453;DHT22;16424;50.956;5.320;2023-01-10T02:12:15;5.90;99.90
29453;DHT22;16424;50.956;5.320;2023-01-10T02:14:50;5.90;99.90
29453;DHT22;16424;50.956;5.320;2023-01-10T02:17:16;5.90;99.90
29453;DHT22;16424;50.956;5.320;2023-01-10T02:19:57;5.80;99.90
29453;DHT22;16424;50.956;5.320;2023-01-10T02:28:02;5.70;99.90
29453;DHT22;16424;50.956;5.320;2023-01-10T02:30:49;5.80;99.90
29453;DHT22;16424;50.956;5.320;2023-01-10T02:33:32;5.90;99.90
29453;DHT22;16424;50.956;5.320;2023-01-10T02:38:35;5.90;99.90
29453;DHT22;16424;50.956;5.320;2023-01-10T02:41:32;5.90;99.90
29453;DHT22;16424;50.956;5.320;2023-01-10T02:44:06;5.90;99.90
29453;DHT22;16424;50.956;5.320;2023-01-10T02:46:36;5.70;99.90
29453;DHT22;16424;50.956;5.320;2023-01-10T02:49:02;5.90;99.90
29453;DHT22;16424;50.956;5.320;2023-01-10T02:51:31;5.80;99.90
29453;DHT22;16424;50.956;5.320;2023-01-10T02:54:20;5.90;99.90
29453;DHT22;16424;50.956;5.320;2023-01-10T02:59:51;5.70;99.90
29453;DHT22;16424;50.956;5.320;2023-01-10T03:05:54;5.60;99.90
29453;DHT22;16424;50.956;5.320;2023-01-10T03:08:55;5.70;99.90
29453;DHT22;16424;50.956;5.320;2023-01-10T03:11:26;5.70;99.90
29453;DHT22;16424;50.956;5.320;2023-01-10T03:14:10;5.90;99.90
29453;DHT22;16424;50.956;5.320;2023-01-10T03:16:37;5.80;99.90
29453;DHT22;16424;50.956;5.320;2023-01-10T03:19:13;5.90;99.90
29453;DHT22;16424;50.956;5.320;2023-01-10T03:21:42;5.70;99.90
29453;DHT22;16424;50.956;5.320;2023-01-10T03:24:14;5.70;99.90
29453;DHT22;16424;50.956;5.320;2023-01-10T03:26:46;5.90;99.90
29453;DHT22;16424;50.956;5.320;2023-01-10T03:29:18;5.90;99.90
29453;DHT22;16424;50.956;5.320;2023-01-10T03:31:56;5.80;99.90
29453;DHT22;16424;50.956;5.320;2023-01-10T03:34:24;5.90;99.90
29453;DHT22;16424;50.956;5.320;2023-01-10T03:40:15;6.00;99.90
29453;DHT22;16424;50.956;5.320;2023-01-10T03:42:59;6.10;99.90
29453;DHT22;16424;50.956;5.320;2023-01-10T03:45:52;6.20;99.90
29453;DHT22;16424;50.956;5.320;2023-01-10T03:48:21;6.10;99.90
29453;DHT22;16424;50.956;5.320;2023-01-10T03:50:48;6.30;99.90
29453;DHT22;16424;50.956;5.320;2023-01-10T03:53:16;6.50;99.90
29453;DHT22;16424;50.956;5.320;2023-01-10T03:55:42;6.60;99.90
29453;DHT22;16424;50.956;5.320;2023-01-10T03:58:08;6.60;99.90
29453;DHT22;16424;50.956;5.320;2023-01-10T04:00:34;6.60;99.90
29453;DHT22;16424;50.956;5.320;2023-01-10T04:03:00;6.60;99.90
29453;DHT22;16424;50.956;5.320;2023-01-10T04:05:26;6.60;99.90
29453;DHT22;16424;50.956;5.320;2023-01-10T04:07:52;6.60;99.90
29453;DHT22;16424;50.956;5.320;2023-01-10T04:10:17;6.70;99.90
29453;DHT22;16424;50.956;5.320;2023-01-10T04:12:43;6.70;99.90
29453;DHT22;16424;50.956;5.320;2023-01-10T04:15:09;6.60;99.90
29453;DHT22;16424;50.956;5.320;2023-01-10T04:17:35;6.40;99.90
29453;DHT22;16424;50.956;5.320;2023-01-10T04:20:00;6.30;99.90
29453;DHT22;16424;50.956;5.320;2023-01-10T04:22:26;6.30;99.90
29453;DHT22;16424;50.956;5.320;2023-01-10T04:24:52;6.40;99.90
29453;DHT22;16424;50.956;5.320;2023-01-10T04:27:19;6.40;99.90
29453;DHT22;16424;50.956;5.320;2023-01-10T04:29:45;6.40;99.90
29453;DHT22;16424;50.956;5.320;2023-01-10T04:32:10;6.20;99.90
29453;DHT22;16424;50.956;5.320;2023-01-10T04:34:36;6.30;99.90
29453;DHT22;16424;50.956;5.320;2023-01-10T04:37:02;6.40;99.90
29453;DHT22;16424;50.956;5.320;2023-01-10T04:39:28;6.50;99.90
29453;DHT22;16424;50.956;5.320;2023-01-10T04:41:53;6.50;99.90
29453;DHT22;16424;50.956;5.320;2023-01-10T04:44:19;6.50;99.90
29453;DHT22;16424;50.956;5.320;2023-01-10T04:46:45;6.60;99.90
29453;DHT22;16424;50.956;5.320;2023-01-10T04:49:10;6.60;99.90
29453;DHT22;16424;50.956;5.320;2023-01-10T04:51:36;6.50;99.90
29453;DHT22;16424;50.956;5.320;2023-01-10T04:54:02;6.50;99.90
29453;DHT22;16424;50.956;5.320;2023-01-10T04:56:31;6.60;99.90
29453;DHT22;16424;50.956;5.320;2023-01-10T04:58:57;6.70;99.90
29453;DHT22;16424;50.956;5.320;2023-01-10T05:01:24;6.80;99.90
29453;DHT22;16424;50.956;5.320;2023-01-10T05:03:51;6.80;99.90
29453;DHT22;16424;50.956;5.320;2023-01-10T05:06:18;6.70;99.90
29453;DHT22;16424;50.956;5.320;2023-01-10T05:08:45;6.80;99.90
29453;DHT22;16424;50.956;5.320;2023-01-10T05:11:10;6.70;99.90
29453;DHT22;16424;50.956;5.320;2023-01-10T05:13:36;6.70;99.90
29453;DHT22;16424;50.956;5.320;2023-01-10T05:16:02;6.80;99.90
29453;DHT22;16424;50.956;5.320;2023-01-10T05:18:28;6.70;99.90
29453;DHT22;16424;50.956;5.320;2023-01-10T05:21:01;6.70;99.90
29453;DHT22;16424;50.956;5.320;2023-01-10T05:23:27;6.80;99.90
29453;DHT22;16424;50.956;5.320;2023-01-10T05:25:53;6.70;99.90
29453;DHT22;16424;50.956;5.320;2023-01-10T05:28:19;6.60;99.90
29453;DHT22;16424;50.956;5.320;2023-01-10T05:30:45;6.60;99.90
29453;DHT22;16424;50.956;5.320;2023-01-10T05:33:11;6.70;99.90
29453;DHT22;16424;50.956;5.320;2023-01-10T05:35:36;6.60;99.90
29453;DHT22;16424;50.956;5.320;2023-01-10T05:38:02;6.70;99.90
29453;DHT22;16424;50.956;5.320;2023-01-10T05:40:28;6.60;99.90
29453;DHT22;16424;50.956;5.320;2023-01-10T05:42:54;6.60;99.90
29453;DHT22;16424;50.956;5.320;2023-01-10T05:45:20;6.50;99.90
29453;DHT22;16424;50.956;5.320;2023-01-10T05:47:46;6.50;99.90
29453;DHT22;16424;50.956;5.320;2023-01-10T05:50:11;6.50;99.90
29453;DHT22;16424;50.956;5.320;2023-01-10T05:52:37;6.60;99.90
29453;DHT22;16424;50.956;5.320;2023-01-10T05:55:03;6.50;99.90
29453;DHT22;16424;50.956;5.320;2023-01-10T05:57:28;6.50;99.90
29453;DHT22;16424;50.956;5.320;2023-01-10T05:59:54;6.50;99.90
29453;DHT22;16424;50.956;5.320;2023-01-10T06:02:20;6.30;99.90
29453;DHT22;16424;50.956;5.320;2023-01-10T06:04:45;6.20;99.90
29453;DHT22;16424;50.956;5.320;2023-01-10T06:07:11;6.10;99.90
29453;DHT22;16424;50.956;5.320;2023-01-10T06:09:36;6.00;99.90
29453;DHT22;16424;50.956;5.320;2023-01-10T06:12:02;6.10;99.90
29453;DHT22;16424;50.956;5.320;2023-01-10T06:14:28;6.10;99.90
29453;DHT22;16424;50.956;5.320;2023-01-10T06:16:56;6.20;99.90
29453;DHT22;16424;50.956;5.320;2023-01-10T06:19:22;6.00;99.90
29453;DHT22;16424;50.956;5.320;2023-01-10T06:21:48;6.00;99.90
29453;DHT22;16424;50.956;5.320;2023-01-10T06:24:13;6.00;99.90
29453;DHT22;16424;50.956;5.320;2023-01-10T06:26:39;5.80;99.90
29453;DHT22;16424;50.956;5.320;2023-01-10T06:29:04;5.90;99.90
29453;DHT22;16424;50.956;5.320;2023-01-10T06:31:30;6.00;99.90
29453;DHT22;16424;50.956;5.320;2023-01-10T06:33:56;6.00;99.90
29453;DHT22;16424;50.956;5.320;2023-01-10T06:36:21;6.00;99.90
29453;DHT22;16424;50.956;5.320;2023-01-10T06:38:47;5.80;99.90
29453;DHT22;16424;50.956;5.320;2023-01-10T06:41:12;5.90;99.90
29453;DHT22;16424;50.956;5.320;2023-01-10T06:43:45;5.80;99.90
29453;DHT22;16424;50.956;5.320;2023-01-10T06:46:16;5.80;99.90
29453;DHT22;16424;50.956;5.320;2023-01-10T06:48:43;5.80;99.90
29453;DHT22;16424;50.956;5.320;2023-01-10T06:51:11;5.70;99.90
29453;DHT22;16424;50.956;5.320;2023-01-10T06:53:37;5.70;99.90
29453;DHT22;16424;50.956;5.320;2023-01-10T06:56:03;5.60;99.90
29453;DHT22;16424;50.956;5.320;2023-01-10T06:58:30;5.60;99.90
29453;DHT22;16424;50.956;5.320;2023-01-10T07:00:56;5.70;99.90
29453;DHT22;16424;50.956;5.320;2023-01-10T07:03:22;5.50;99.90
29453;DHT22;16424;50.956;5.320;2023-01-10T07:05:48;5.50;99.90
29453;DHT22;16424;50.956;5.320;2023-01-10T07:08:13;5.50;99.90
29453;DHT22;16424;50.956;5.320;2023-01-10T07:10:40;5.50;99.90
29453;DHT22;16424;50.956;5.320;2023-01-10T07:13:06;5.70;99.90
29453;DHT22;16424;50.956;5.320;2023-01-10T07:15:32;5.60;99.90
29453;DHT22;16424;50.956;5.320;2023-01-10T07:17:58;5.60;99.90
29453;DHT22;16424;50.956;5.320;2023-01-10T07:20:24;5.50;99.90
29453;DHT22;16424;50.956;5.320;2023-01-10T07:23:08;5.60;99.90
29453;DHT22;16424;50.956;5.320;2023-01-10T07:25:34;5.70;99.90
29453;DHT22;16424;50.956;5.320;2023-01-10T07:27:59;5.70;99.90
29453;DHT22;16424;50.956;5.320;2023-01-10T07:30:25;5.60;99.90
29453;DHT22;16424;50.956;5.320;2023-01-10T07:32:57;5.50;99.90
29453;DHT22;16424;50.956;5.320;2023-01-10T07:35:23;5.40;99.90
29453;DHT22;16424;50.956;5.320;2023-01-10T07:37:50;5.40;99.90
29453;DHT22;16424;50.956;5.320;2023-01-10T07:40:15;5.50;99.90
29453;DHT22;16424;50.956;5.320;2023-01-10T07:42:41;5.40;99.90
29453;DHT22;16424;50.956;5.320;2023-01-10T07:45:07;5.40;99.90
29453;DHT22;16424;50.956;5.320;2023-01-10T07:47:33;5.40;99.90
29453;DHT22;16424;50.956;5.320;2023-01-10T07:49:59;5.40;99.90
29453;DHT22;16424;50.956;5.320;2023-01-10T07:52:25;5.50;99.90
29453;DHT22;16424;50.956;5.320;2023-01-10T07:54:50;5.40;99.90
29453;DHT22;16424;50.956;5.320;2023-01-10T07:57:18;5.50;99.90
29453;DHT22;16424;50.956;5.320;2023-01-10T07:59:44;5.60;99.90
29453;DHT22;16424;50.956;5.320;2023-01-10T08:02:10;5.60;99.90
29453;DHT22;16424;50.956;5.320;2023-01-10T08:04:35;5.70;99.90
29453;DHT22;16424;50.956;5.320;2023-01-10T08:07:03;5.80;99.90
29453;DHT22;16424;50.956;5.320;2023-01-10T08:09:29;5.80;99.90
29453;DHT22;16424;50.956;5.320;2023-01-10T08:11:54;5.90;99.90
29453;DHT22;16424;50.956;5.320;2023-01-10T08:14:20;6.20;99.90
29453;DHT22;16424;50.956;5.320;2023-01-10T08:16:48;6.20;99.90
29453;DHT22;16424;50.956;5.320;2023-01-10T08:19:14;6.30;99.90
29453;DHT22;16424;50.956;5.320;2023-01-10T08:21:42;6.50;99.90
29453;DHT22;16424;50.956;5.320;2023-01-10T08:24:08;6.70;99.90
29453;DHT22;16424;50.956;5.320;2023-01-10T08:26:34;7.00;99.90
29453;DHT22;16424;50.956;5.320;2023-01-10T08:29:00;7.20;99.90
29453;DHT22;16424;50.956;5.320;2023-01-10T08:31:26;7.30;99.90
29453;DHT22;16424;50.956;5.320;2023-01-10T08:33:51;7.30;99.90
29453;DHT22;16424;50.956;5.320;2023-01-10T08:36:19;7.40;99.90
29453;DHT22;16424;50.956;5.320;2023-01-10T08:38:45;7.70;99.90
29453;DHT22;16424;50.956;5.320;2023-01-10T08:41:11;8.00;99.90
29453;DHT22;16424;50.956;5.320;2023-01-10T08:43:37;8.00;99.90
29453;DHT22;16424;50.956;5.320;2023-01-10T08:46:05;8.30;99.90
29453;DHT22;16424;50.956;5.320;2023-01-10T08:48:30;8.40;99.90
29453;DHT22;16424;50.956;5.320;2023-01-10T08:50:56;8.40;99.90
29453;DHT22;16424;50.956;5.320;2023-01-10T08:53:22;8.70;99.90
29453;DHT22;16424;50.956;5.320;2023-01-10T08:55:48;8.80;99.90
29453;DHT22;16424;50.956;5.320;2023-01-10T08:58:14;8.70;99.90
29453;DHT22;16424;50.956;5.320;2023-01-10T09:00:40;8.60;99.90
29453;DHT22;16424;50.956;5.320;2023-01-10T09:03:06;8.70;99.90
29453;DHT22;16424;50.956;5.320;2023-01-10T09:05:33;9.10;99.90
29453;DHT22;16424;50.956;5.320;2023-01-10T09:08:00;9.30;99.90
29453;DHT22;16424;50.956;5.320;2023-01-10T09:10:27;9.20;99.90
29453;DHT22;16424;50.956;5.320;2023-01-10T09:12:53;9.30;99.90
29453;DHT22;16424;50.956;5.320;2023-01-10T09:15:20;9.60;99.90
29453;DHT22;16424;50.956;5.320;2023-01-10T09:17:46;9.80;99.90
29453;DHT22;16424;50.956;5.320;2023-01-10T09:20:14;10.00;99.90
29453;DHT22;16424;50.956;5.320;2023-01-10T09:22:40;9.70;99.90
29453;DHT22;16424;50.956;5.320;2023-01-10T09:25:06;9.40;99.90
29453;DHT22;16424;50.956;5.320;2023-01-10T09:27:32;9.40;99.90
29453;DHT22;16424;50.956;5.320;2023-01-10T09:29:57;9.20;99.90
29453;DHT22;16424;50.956;5.320;2023-01-10T09:32:24;9.00;99.90
29453;DHT22;16424;50.956;5.320;2023-01-10T09:34:49;8.80;99.90
29453;DHT22;16424;50.956;5.320;2023-01-10T09:37:15;8.60;99.90
29453;DHT22;16424;50.956;5.320;2023-01-10T09:39:42;8.70;99.90
29453;DHT22;16424;50.956;5.320;2023-01-10T09:48:12;8.70;99.90
29453;DHT22;16424;50.956;5.320;2023-01-10T09:50:55;8.50;99.90
29453;DHT22;16424;50.956;5.320;2023-01-10T09:53:27;8.20;99.90
29453;DHT22;16424;50.956;5.320;2023-01-10T09:55:56;8.40;99.90
29453;DHT22;16424;50.956;5.320;2023-01-10T09:58:26;8.40;99.90
29453;DHT22;16424;50.956;5.320;2023-01-10T10:00:56;8.20;99.90
29453;DHT22;16424;50.956;5.320;2023-01-10T10:03:38;8.30;99.90
29453;DHT22;16424;50.956;5.320;2023-01-10T10:06:10;8.40;99.90
29453;DHT22;16424;50.956;5.320;2023-01-10T10:08:37;8.30;99.90
29453;DHT22;16424;50.956;5.320;2023-01-10T10:14:31;8.20;99.90
29453;DHT22;16424;50.956;5.320;2023-01-10T10:25:02;8.20;99.90
29453;DHT22;16424;50.956;5.320;2023-01-10T10:39:05;8.20;99.90
29453;DHT22;16424;50.956;5.320;2023-01-10T10:41:37;8.20;99.90
29453;DHT22;16424;50.956;5.320;2023-01-10T10:44:42;8.10;99.90
29453;DHT22;16424;50.956;5.320;2023-01-10T10:47:15;8.20;99.90
29453;DHT22;16424;50.956;5.320;2023-01-10T10:49:51;8.30;99.90
29453;DHT22;16424;50.956;5.320;2023-01-10T10:52:24;8.30;99.90
29453;DHT22;16424;50.956;5.320;2023-01-10T10:54:51;8.30;99.90
29453;DHT22;16424;50.956;5.320;2023-01-10T10:57:18;8.20;99.90
29453;DHT22;16424;50.956;5.320;2023-01-10T10:59:47;8.30;99.90
29453;DHT22;16424;50.956;5.320;2023-01-10T11:02:41;8.30;99.90
29453;DHT22;16424;50.956;5.320;2023-01-10T11:05:28;8.10;99.90
29453;DHT22;16424;50.956;5.320;2023-01-10T11:07:59;7.90;99.90
29453;DHT22;16424;50.956;5.320;2023-01-10T11:10:27;7.90;99.90
29453;DHT22;16424;50.956;5.320;2023-01-10T11:15:46;7.90;99.90
29453;DHT22;16424;50.956;5.320;2023-01-10T11:18:13;8.00;99.90
29453;DHT22;16424;50.956;5.320;2023-01-10T11:21:10;8.00;99.90
29453;DHT22;16424;50.956;5.320;2023-01-10T11:26:09;8.20;99.90
29453;DHT22;16424;50.956;5.320;2023-01-10T11:28:36;8.30;99.90
29453;DHT22;16424;50.956;5.320;2023-01-10T11:31:02;8.30;99.90
29453;DHT22;16424;50.956;5.320;2023-01-10T11:33:33;8.40;99.90
29453;DHT22;16424;50.956;5.320;2023-01-10T11:36:09;8.30;99.90
29453;DHT22;16424;50.956;5.320;2023-01-10T11:38:37;8.30;99.90
29453;DHT22;16424;50.956;5.320;2023-01-10T11:41:05;8.20;99.90
29453;DHT22;16424;50.956;5.320;2023-01-10T11:43:33;8.20;99.90
29453;DHT22;16424;50.956;5.320;2023-01-10T11:46:20;8.40;99.90
29453;DHT22;16424;50.956;5.320;2023-01-10T11:49:05;8.50;99.90
29453;DHT22;16424;50.956;5.320;2023-01-10T11:51:37;8.60;99.90
29453;DHT22;16424;50.956;5.320;2023-01-10T11:54:06;8.50;99.90
29453;DHT22;16424;50.956;5.320;2023-01-10T11:56:35;8.50;99.90
29453;DHT22;16424;50.956;5.320;2023-01-10T11:59:13;8.40;99.90
29453;DHT22;16424;50.956;5.320;2023-01-10T12:04:20;8.40;99.90
29453;DHT22;16424;50.956;5.320;2023-01-10T12:06:50;8.50;99.90
29453;DHT22;16424;50.956;5.320;2023-01-10T12:12:28;8.50;99.90
29453;DHT22;16424;50.956;5.320;2023-01-10T12:14:58;8.30;99.90
29453;DHT22;16424;50.956;5.320;2023-01-10T12:17:35;8.30;99.90
29453;DHT22;16424;50.956;5.320;2023-01-10T12:20:03;8.30;99.90
29453;DHT22;16424;50.956;5.320;2023-01-10T12:22:43;8.40;99.90
29453;DHT22;16424;50.956;5.320;2023-01-10T12:27:44;8.50;99.90
29453;DHT22;16424;50.956;5.320;2023-01-10T12:32:51;8.50;99.90
29453;DHT22;16424;50.956;5.320;2023-01-10T12:38:03;8.40;99.90
29453;DHT22;16424;50.956;5.320;2023-01-10T12:41:05;8.40;99.90
29453;DHT22;16424;50.956;5.320;2023-01-10T12:43:39;8.30;99.90
29453;DHT22;16424;50.956;5.320;2023-01-10T12:46:39;8.30;99.90
29453;DHT22;16424;50.956;5.320;2023-01-10T12:49:15;8.30;99.90
29453;DHT22;16424;50.956;5.320;2023-01-10T12:51:43;8.30;99.90
29453;DHT22;16424;50.956;5.320;2023-01-10T12:54:22;8.20;99.90
29453;DHT22;16424;50.956;5.320;2023-01-10T12:56:48;8.20;99.90
29453;DHT22;16424;50.956;5.320;2023-01-10T12:59:28;8.20;99.90
29453;DHT22;16424;50.956;5.320;2023-01-10T13:02:02;8.20;99.90
29453;DHT22;16424;50.956;5.320;2023-01-10T13:04:30;8.20;99.90
29453;DHT22;16424;50.956;5.320;2023-01-10T13:06:56;8.20;99.90
29453;DHT22;16424;50.956;5.320;2023-01-10T13:09:25;8.30;99.90
29453;DHT22;16424;50.956;5.320;2023-01-10T13:12:30;8.40;99.90
29453;DHT22;16424;50.956;5.320;2023-01-10T13:18:26;8.40;99.90
29453;DHT22;16424;50.956;5.320;2023-01-10T13:21:03;8.30;99.90
29453;DHT22;16424;50.956;5.320;2023-01-10T13:23:46;8.20;99.90
29453;DHT22;16424;50.956;5.320;2023-01-10T13:29:01;8.30;99.90
29453;DHT22;16424;50.956;5.320;2023-01-10T13:31:31;8.10;99.90
29453;DHT22;16424;50.956;5.320;2023-01-10T13:36:50;8.00;99.90
29453;DHT22;16424;50.956;5.320;2023-01-10T13:39:26;7.90;99.90
29453;DHT22;16424;50.956;5.320;2023-01-10T14:00:50;7.50;99.90
29453;DHT22;16424;50.956;5.320;2023-01-10T14:03:46;7.50;99.90
29453;DHT22;16424;50.956;5.320;2023-01-10T14:08:39;7.40;99.90
29453;DHT22;16424;50.956;5.320;2023-01-10T14:11:07;7.30;99.90
29453;DHT22;16424;50.956;5.320;2023-01-10T14:13:34;7.30;99.90
29453;DHT22;16424;50.956;5.320;2023-01-10T14:16:00;7.40;99.90
29453;DHT22;16424;50.956;5.320;2023-01-10T14:18:36;7.30;99.90
29453;DHT22;16424;50.956;5.320;2023-01-10T14:21:04;7.30;99.90
29453;DHT22;16424;50.956;5.320;2023-01-10T14:23:35;7.40;99.90
29453;DHT22;16424;50.956;5.320;2023-01-10T14:26:03;7.30;99.90
29453;DHT22;16424;50.956;5.320;2023-01-10T14:28:31;7.40;99.90
29453;DHT22;16424;50.956;5.320;2023-01-10T14:31:17;7.40;99.90
29453;DHT22;16424;50.956;5.320;2023-01-10T14:33:44;7.30;99.90
29453;DHT22;16424;50.956;5.320;2023-01-10T14:36:16;7.30;99.90
29453;DHT22;16424;50.956;5.320;2023-01-10T14:38:44;7.30;99.90
29453;DHT22;16424;50.956;5.320;2023-01-10T14:46:55;7.30;99.90
29453;DHT22;16424;50.956;5.320;2023-01-10T14:49:25;7.20;99.90
29453;DHT22;16424;50.956;5.320;2023-01-10T14:51:52;7.10;99.90
29453;DHT22;16424;50.956;5.320;2023-01-10T14:54:20;7.10;99.90
29453;DHT22;16424;50.956;5.320;2023-01-10T14:56:52;7.10;99.90
29453;DHT22;16424;50.956;5.320;2023-01-10T14:59:32;7.10;99.90
29453;DHT22;16424;50.956;5.320;2023-01-10T15:04:48;7.00;99.90
29453;DHT22;16424;50.956;5.320;2023-01-10T15:07:15;7.00;99.90
29453;DHT22;16424;50.956;5.320;2023-01-10T15:09:47;7.00;99.90
29453;DHT22;16424;50.956;5.320;2023-01-10T15:12:14;6.90;99.90
29453;DHT22;16424;50.956;5.320;2023-01-10T15:14:41;7.00;99.90
29453;DHT22;16424;50.956;5.320;2023-01-10T15:17:12;7.00;99.90
29453;DHT22;16424;50.956;5.320;2023-01-10T15:19:42;7.00;99.90
29453;DHT22;16424;50.956;5.320;2023-01-10T15:22:19;6.90;99.90
29453;DHT22;16424;50.956;5.320;2023-01-10T15:25:12;7.00;99.90
29453;DHT22;16424;50.956;5.320;2023-01-10T15:27:50;6.90;99.90
29453;DHT22;16424;50.956;5.320;2023-01-10T15:30:23;7.00;99.90
29453;DHT22;16424;50.956;5.320;2023-01-10T15:32:51;6.90;99.90
29453;DHT22;16424;50.956;5.320;2023-01-10T15:35:19;7.00;99.90
29453;DHT22;16424;50.956;5.320;2023-01-10T15:37:51;6.90;99.90
29453;DHT22;16424;50.956;5.320;2023-01-10T15:40:38;6.90;99.90
29453;DHT22;16424;50.956;5.320;2023-01-10T15:43:25;6.90;99.90
29453;DHT22;16424;50.956;5.320;2023-01-10T15:45:51;6.90;99.90
29453;DHT22;16424;50.956;5.320;2023-01-10T15:51:19;6.80;99.90
29453;DHT22;16424;50.956;5.320;2023-01-10T15:56:45;6.80;99.90
29453;DHT22;16424;50.956;5.320;2023-01-10T15:59:30;6.80;99.90
29453;DHT22;16424;50.956;5.320;2023-01-10T16:04:37;6.80;99.90
29453;DHT22;16424;50.956;5.320;2023-01-10T16:07:25;6.90;99.90
29453;DHT22;16424;50.956;5.320;2023-01-10T16:10:02;6.90;99.90
29453;DHT22;16424;50.956;5.320;2023-01-10T16:12:37;7.00;99.90
29453;DHT22;16424;50.956;5.320;2023-01-10T16:15:27;7.10;99.90
29453;DHT22;16424;50.956;5.320;2023-01-10T16:17:53;7.10;99.90
29453;DHT22;16424;50.956;5.320;2023-01-10T16:20:39;7.10;99.90
29453;DHT22;16424;50.956;5.320;2023-01-10T16:23:14;7.10;99.90
29453;DHT22;16424;50.956;5.320;2023-01-10T16:25:45;7.10;99.90
29453;DHT22;16424;50.956;5.320;2023-01-10T16:28:13;7.10;99.90
29453;DHT22;16424;50.956;5.320;2023-01-10T16:30:39;7.20;99.90
29453;DHT22;16424;50.956;5.320;2023-01-10T16:33:11;7.20;99.90
29453;DHT22;16424;50.956;5.320;2023-01-10T16:35:37;7.20;99.90
29453;DHT22;16424;50.956;5.320;2023-01-10T16:38:03;7.20;99.90
29453;DHT22;16424;50.956;5.320;2023-01-10T16:40:34;7.30;99.90
29453;DHT22;16424;50.956;5.320;2023-01-10T16:43:01;7.30;99.90
29453;DHT22;16424;50.956;5.320;2023-01-10T16:45:45;7.40;99.90
29453;DHT22;16424;50.956;5.320;2023-01-10T16:48:12;7.30;99.90
29453;DHT22;16424;50.956;5.320;2023-01-10T16:50:39;7.40;99.90
29453;DHT22;16424;50.956;5.320;2023-01-10T16:53:05;7.50;99.90
29453;DHT22;16424;50.956;5.320;2023-01-10T16:55:38;7.50;99.90
29453;DHT22;16424;50.956;5.320;2023-01-10T16:58:05;7.60;99.90
29453;DHT22;16424;50.956;5.320;2023-01-10T17:00:31;7.60;99.90
29453;DHT22;16424;50.956;5.320;2023-01-10T17:02:57;7.50;99.90
29453;DHT22;16424;50.956;5.320;2023-01-10T17:05:23;7.50;99.90
29453;DHT22;16424;50.956;5.320;2023-01-10T17:07:49;7.50;99.90
29453;DHT22;16424;50.956;5.320;2023-01-10T17:10:15;7.60;99.90
29453;DHT22;16424;50.956;5.320;2023-01-10T17:12:41;7.60;99.90
29453;DHT22;16424;50.956;5.320;2023-01-10T17:15:11;7.60;99.90
29453;DHT22;16424;50.956;5.320;2023-01-10T17:17:37;7.60;99.90
29453;DHT22;16424;50.956;5.320;2023-01-10T17:20:03;7.70;99.90
29453;DHT22;16424;50.956;5.320;2023-01-10T17:22:30;7.70;99.90
29453;DHT22;16424;50.956;5.320;2023-01-10T17:24:56;7.70;99.90
29453;DHT22;16424;50.956;5.320;2023-01-10T17:27:22;7.80;99.90
29453;DHT22;16424;50.956;5.320;2023-01-10T17:29:47;7.80;99.90
29453;DHT22;16424;50.956;5.320;2023-01-10T17:32:13;7.90;99.90
29453;DHT22;16424;50.956;5.320;2023-01-10T17:34:41;7.80;99.90
29453;DHT22;16424;50.956;5.320;2023-01-10T17:37:07;7.80;99.90
29453;DHT22;16424;50.956;5.320;2023-01-10T17:39:33;7.90;99.90
29453;DHT22;16424;50.956;5.320;2023-01-10T17:42:03;7.90;99.90
29453;DHT22;16424;50.956;5.320;2023-01-10T17:44:29;8.00;99.90
29453;DHT22;16424;50.956;5.320;2023-01-10T17:46:56;8.00;99.90
29453;DHT22;16424;50.956;5.320;2023-01-10T17:49:22;7.90;99.90
29453;DHT22;16424;50.956;5.320;2023-01-10T17:51:48;7.90;99.90
29453;DHT22;16424;50.956;5.320;2023-01-10T17:54:13;8.00;99.90